Aviation Digital Data Service (ADDS)

Output produced by TAFs form (0708 UTC 26 March 2017)
found at http://aviationweather.gov/adds/tafs/
 
KTCS 260541Z 2606/2706 28008KT P6SM BKN250 
     FM261600 26015G25KT P6SM SKC 
     FM270300 29008KT P6SM FEW250